createdAt,value
2019-02-20T00:00:32.552Z,4.20
2019-02-20T00:03:01.223Z,4.10
2019-02-20T00:05:29.073Z,4.10
2019-02-20T00:07:56.927Z,4.00
2019-02-20T00:10:24.935Z,4.00
2019-02-20T00:12:52.844Z,4.00
2019-02-20T00:15:21.018Z,4.00
2019-02-20T00:17:48.881Z,4.00
2019-02-20T00:20:16.778Z,3.80
2019-02-20T00:22:44.637Z,3.90
2019-02-20T00:25:12.492Z,4.10
2019-02-20T00:27:40.330Z,4.10
2019-02-20T00:30:08.224Z,4.10
2019-02-20T00:32:36.059Z,4.10
2019-02-20T00:35:04.091Z,4.00
2019-02-20T00:37:31.913Z,3.80
2019-02-20T00:39:59.902Z,4.00
2019-02-20T00:42:27.714Z,3.70
2019-02-20T00:45:30.474Z,3.60
2019-02-20T00:48:23.858Z,3.60
2019-02-20T00:50:56.243Z,3.50
2019-02-20T00:53:31.495Z,3.50
2019-02-20T00:55:59.373Z,3.50
2019-02-20T00:58:27.198Z,3.50
2019-02-20T01:00:55.042Z,3.60
2019-02-20T01:03:22.873Z,3.70
2019-02-20T01:05:50.719Z,3.70
2019-02-20T01:08:18.681Z,3.70
2019-02-20T01:10:46.607Z,3.70
2019-02-20T01:13:14.572Z,3.60
2019-02-20T01:15:42.414Z,3.40
2019-02-20T01:18:10.290Z,3.50
2019-02-20T01:20:38.143Z,3.50
2019-02-20T01:23:06.020Z,3.60
2019-02-20T01:25:33.861Z,3.60
2019-02-20T01:28:01.819Z,3.60
2019-02-20T01:30:29.629Z,3.40
2019-02-20T01:32:57.459Z,3.30
2019-02-20T01:35:25.299Z,3.20
2019-02-20T01:37:53.251Z,3.30
2019-02-20T01:40:21.068Z,3.20
2019-02-20T01:42:48.930Z,3.10
2019-02-20T01:45:16.757Z,3.00
2019-02-20T01:47:44.567Z,3.10
2019-02-20T01:50:12.529Z,3.00
2019-02-20T01:52:40.623Z,3.00
2019-02-20T01:55:08.548Z,3.00
2019-02-20T01:57:36.391Z,3.00
2019-02-20T02:00:05.803Z,3.00
2019-02-20T02:02:33.654Z,3.10
2019-02-20T02:05:01.627Z,3.20
2019-02-20T02:07:29.466Z,3.20
2019-02-20T02:09:57.319Z,3.20
2019-02-20T02:12:25.188Z,3.10
2019-02-20T02:14:53.076Z,3.10
2019-02-20T02:17:20.882Z,3.20
2019-02-20T02:19:48.725Z,3.20
2019-02-20T02:22:16.557Z,3.30
2019-02-20T02:24:44.354Z,3.20
2019-02-20T02:27:12.538Z,3.30
2019-02-20T02:29:40.357Z,3.40
2019-02-20T02:32:08.197Z,3.50
2019-02-20T02:34:36.022Z,3.60
2019-02-20T02:37:03.981Z,3.60
2019-02-20T02:39:31.793Z,3.50
2019-02-20T02:41:59.646Z,3.40
2019-02-20T02:44:27.489Z,3.40
2019-02-20T02:46:55.315Z,3.20
2019-02-20T02:49:23.206Z,3.20
2019-02-20T02:51:51.012Z,3.20
2019-02-20T02:54:18.822Z,3.20
2019-02-20T02:56:46.674Z,3.30
2019-02-20T02:59:14.798Z,3.30
2019-02-20T03:01:42.636Z,3.30
2019-02-20T03:04:10.467Z,3.30
2019-02-20T03:06:38.336Z,3.30
2019-02-20T03:09:06.518Z,3.40
2019-02-20T03:11:34.623Z,3.50
2019-02-20T03:14:02.484Z,3.50
2019-02-20T03:16:30.426Z,3.80
2019-02-20T03:18:58.259Z,3.80
2019-02-20T03:21:26.104Z,3.60
2019-02-20T03:23:53.933Z,3.70
2019-02-20T03:26:22.075Z,3.80
2019-02-20T03:28:49.917Z,3.80
2019-02-20T03:31:17.738Z,3.70
2019-02-20T03:33:45.613Z,3.70
2019-02-20T03:36:13.453Z,3.60
2019-02-20T03:38:41.323Z,3.40
2019-02-20T03:41:09.137Z,3.30
2019-02-20T03:43:36.967Z,3.30
2019-02-20T03:46:04.830Z,3.30
2019-02-20T03:48:32.723Z,3.40
2019-02-20T03:51:00.526Z,3.40
2019-02-20T03:53:28.476Z,3.50
2019-02-20T03:55:57.056Z,3.50
2019-02-20T03:58:24.856Z,3.40
2019-02-20T04:00:52.699Z,3.40
2019-02-20T04:03:20.888Z,3.50
2019-02-20T04:05:48.742Z,3.70
2019-02-20T04:08:16.585Z,3.70
2019-02-20T04:10:44.730Z,3.60
2019-02-20T04:13:12.594Z,3.70
2019-02-20T04:15:40.452Z,3.80
2019-02-20T04:18:08.299Z,3.70
2019-02-20T04:20:36.208Z,3.70
2019-02-20T04:23:04.008Z,3.70
2019-02-20T04:25:31.825Z,3.90
2019-02-20T04:27:59.662Z,3.90
2019-02-20T04:30:27.512Z,3.80
2019-02-20T04:32:55.317Z,3.60
2019-02-20T04:35:23.225Z,3.60
2019-02-20T04:37:51.086Z,3.60
2019-02-20T04:40:18.946Z,3.60
2019-02-20T04:42:46.822Z,3.60
2019-02-20T04:45:14.745Z,3.60
2019-02-20T04:47:42.617Z,3.60
2019-02-20T04:50:10.432Z,3.60
2019-02-20T04:52:38.324Z,3.70
2019-02-20T04:55:06.235Z,3.60
2019-02-20T04:57:34.089Z,3.50
2019-02-20T05:00:01.940Z,3.60
2019-02-20T05:02:29.870Z,3.60
2019-02-20T05:04:57.827Z,3.60
2019-02-20T05:07:25.660Z,3.60
2019-02-20T05:09:53.510Z,3.60
2019-02-20T05:12:21.309Z,3.60
2019-02-20T05:14:49.477Z,3.60
2019-02-20T05:17:17.299Z,3.70
2019-02-20T05:19:45.129Z,3.60
2019-02-20T05:22:12.999Z,3.60
2019-02-20T05:24:41.164Z,3.60
2019-02-20T05:27:09.049Z,3.70
2019-02-20T05:29:36.911Z,3.70
2019-02-20T05:32:04.769Z,3.70
2019-02-20T05:34:32.614Z,3.80
2019-02-20T05:37:00.433Z,3.80
2019-02-20T05:39:28.400Z,3.70
2019-02-20T05:41:56.278Z,3.60
2019-02-20T05:44:24.133Z,3.70
2019-02-20T05:46:51.975Z,3.70
2019-02-20T05:49:19.786Z,3.60
2019-02-20T05:51:47.633Z,3.60
2019-02-20T05:54:15.465Z,3.60
2019-02-20T05:56:43.318Z,3.70
2019-02-20T05:59:11.193Z,3.70
2019-02-20T06:01:39.017Z,3.70
2019-02-20T06:04:09.606Z,3.70
2019-02-20T06:06:37.453Z,3.60
2019-02-20T06:09:05.648Z,3.60
2019-02-20T06:11:33.465Z,3.60
2019-02-20T06:14:01.345Z,3.60
2019-02-20T06:16:29.185Z,3.60
2019-02-20T06:18:57.023Z,3.60
2019-02-20T06:21:24.867Z,3.50
2019-02-20T06:23:52.702Z,3.50
2019-02-20T06:26:20.613Z,3.50
2019-02-20T06:28:48.449Z,3.60
2019-02-20T06:31:16.587Z,3.60
2019-02-20T06:33:44.494Z,3.60
2019-02-20T06:36:12.358Z,3.60
2019-02-20T06:38:40.197Z,3.50
2019-02-20T06:41:08.034Z,3.60
2019-02-20T06:43:35.927Z,3.60
2019-02-20T06:46:03.794Z,3.70
2019-02-20T06:48:31.617Z,3.70
2019-02-20T06:50:59.545Z,3.70
2019-02-20T06:53:27.397Z,3.70
2019-02-20T06:55:55.227Z,3.60
2019-02-20T06:58:23.053Z,3.60
2019-02-20T07:00:50.914Z,3.60
2019-02-20T07:03:18.773Z,3.70
2019-02-20T07:06:30.839Z,3.80
2019-02-20T07:09:31.663Z,3.80
2019-02-20T07:12:44.065Z,3.80
2019-02-20T07:16:22.133Z,3.80
2019-02-20T07:19:35.213Z,3.80
2019-02-20T07:23:19.183Z,3.90
2019-02-20T07:26:38.349Z,3.90
2019-02-20T07:29:44.260Z,4.00
2019-02-20T07:32:15.955Z,4.00
2019-02-20T07:34:43.801Z,4.10
2019-02-20T07:37:11.807Z,4.00
2019-02-20T07:39:39.641Z,4.10
2019-02-20T07:42:07.461Z,4.10
2019-02-20T07:44:35.339Z,4.10
2019-02-20T07:47:03.182Z,4.20
2019-02-20T07:49:31.023Z,4.20
2019-02-20T07:51:58.868Z,4.20
2019-02-20T07:54:26.731Z,4.30
2019-02-20T07:56:54.593Z,4.40
2019-02-20T07:59:22.801Z,4.30
2019-02-20T08:01:51.234Z,4.30
2019-02-20T08:04:19.045Z,4.30
2019-02-20T08:06:46.948Z,4.30
2019-02-20T08:09:14.848Z,4.30
2019-02-20T08:11:42.761Z,4.40
2019-02-20T08:14:10.614Z,4.50
2019-02-20T08:16:38.441Z,4.70
2019-02-20T08:19:06.295Z,4.80
2019-02-20T08:21:34.137Z,4.80
2019-02-20T08:24:02.081Z,4.90
2019-02-20T08:26:29.924Z,4.90
2019-02-20T08:28:57.753Z,4.80
2019-02-20T08:31:25.650Z,5.00
2019-02-20T08:33:53.512Z,5.20
2019-02-20T08:36:21.629Z,5.20
2019-02-20T08:38:49.448Z,5.40
2019-02-20T08:41:17.266Z,5.50
2019-02-20T08:43:45.112Z,5.60
2019-02-20T08:46:12.948Z,5.70
2019-02-20T08:48:41.067Z,5.80
2019-02-20T08:51:08.891Z,5.90
2019-02-20T08:53:36.794Z,6.00
2019-02-20T08:56:04.727Z,6.20
2019-02-20T08:58:32.558Z,6.40
2019-02-20T09:01:00.418Z,6.60
2019-02-20T09:03:28.263Z,6.70
2019-02-20T09:05:56.124Z,6.90
2019-02-20T09:08:23.973Z,6.90
2019-02-20T09:10:51.783Z,7.00
2019-02-20T09:13:19.623Z,6.90
2019-02-20T09:15:47.437Z,6.90
2019-02-20T09:18:15.292Z,6.90
2019-02-20T09:20:43.112Z,6.80
2019-02-20T09:23:10.963Z,6.80
2019-02-20T09:25:41.598Z,6.80
2019-02-20T09:28:09.018Z,6.80
2019-02-20T09:30:36.856Z,6.90
2019-02-20T09:33:04.730Z,7.00
2019-02-20T09:35:32.741Z,7.20
2019-02-20T09:38:00.604Z,7.30
2019-02-20T09:40:28.478Z,7.50
2019-02-20T09:42:56.318Z,7.50
2019-02-20T09:45:24.137Z,7.60
2019-02-20T09:47:51.989Z,7.80
2019-02-20T09:50:19.827Z,8.10
2019-02-20T09:52:52.337Z,8.30
2019-02-20T09:55:17.428Z,8.40
2019-02-20T09:57:45.318Z,8.40
2019-02-20T10:00:14.173Z,8.40
2019-02-20T10:02:42.018Z,8.50
2019-02-20T10:05:10.016Z,8.50
2019-02-20T10:07:37.952Z,8.60
2019-02-20T10:10:06.659Z,8.90
2019-02-20T10:12:34.542Z,9.10
2019-02-20T10:15:02.721Z,9.20
2019-02-20T10:17:30.571Z,9.50
2019-02-20T10:19:58.415Z,10.00
2019-02-20T10:22:26.210Z,10.40
2019-02-20T10:24:54.090Z,11.20
2019-02-20T10:27:21.928Z,11.50
2019-02-20T10:29:49.798Z,11.70
2019-02-20T10:32:17.680Z,11.80
2019-02-20T10:34:45.542Z,12.10
2019-02-20T10:37:13.389Z,11.70
2019-02-20T10:39:41.277Z,11.50
2019-02-20T10:42:09.162Z,11.80
2019-02-20T10:44:37.016Z,12.50
2019-02-20T10:47:05.128Z,13.40
2019-02-20T10:49:33.000Z,13.30
2019-02-20T10:52:01.352Z,12.70
2019-02-20T10:54:29.171Z,12.30
2019-02-20T10:56:57.037Z,11.80
2019-02-20T10:59:24.883Z,11.50
2019-02-20T11:01:52.759Z,11.60
2019-02-20T11:04:20.608Z,11.60
2019-02-20T11:06:48.458Z,11.60
2019-02-20T11:09:16.427Z,11.60
2019-02-20T11:11:44.281Z,11.50
2019-02-20T11:14:12.118Z,11.30
2019-02-20T11:16:40.581Z,11.40
2019-02-20T11:19:08.463Z,11.60
2019-02-20T11:21:36.314Z,11.70
2019-02-20T11:24:04.169Z,11.70
2019-02-20T11:26:32.098Z,11.60
2019-02-20T11:28:59.982Z,11.70
2019-02-20T11:31:27.833Z,11.80
2019-02-20T11:33:55.671Z,12.00
2019-02-20T11:36:23.540Z,12.10
2019-02-20T11:38:51.361Z,12.60
2019-02-20T11:41:19.201Z,12.50
2019-02-20T11:43:47.065Z,12.80
2019-02-20T11:46:14.895Z,13.20
2019-02-20T11:48:42.713Z,13.30
2019-02-20T11:51:10.823Z,13.40
2019-02-20T11:53:38.758Z,13.60
2019-02-20T11:56:06.634Z,13.60
2019-02-20T11:58:34.455Z,13.60
2019-02-20T12:01:02.913Z,13.50
2019-02-20T12:03:30.761Z,13.10
2019-02-20T12:05:58.624Z,13.00
2019-02-20T12:08:26.543Z,12.90
2019-02-20T12:10:54.951Z,13.00
2019-02-20T12:13:22.883Z,12.80
2019-02-20T12:15:50.710Z,12.80
2019-02-20T12:18:18.637Z,12.80
2019-02-20T12:20:46.456Z,12.60
2019-02-20T12:23:14.344Z,12.70
2019-02-20T12:25:42.182Z,12.80
2019-02-20T12:28:10.152Z,12.60
2019-02-20T12:30:38.179Z,12.60
2019-02-20T12:33:06.142Z,12.70
2019-02-20T12:35:34.095Z,12.80
2019-02-20T12:38:02.538Z,12.70
2019-02-20T12:40:30.708Z,12.60
2019-02-20T12:42:58.572Z,12.60
2019-02-20T12:45:26.528Z,12.30
2019-02-20T12:47:54.437Z,12.40
2019-02-20T12:50:22.304Z,12.50
2019-02-20T12:52:50.216Z,12.60
2019-02-20T12:55:18.077Z,12.80
2019-02-20T12:57:45.910Z,12.90
2019-02-20T13:00:14.907Z,13.00
2019-02-20T13:02:42.783Z,13.10
2019-02-20T13:05:10.985Z,13.10
2019-02-20T13:07:38.809Z,13.10
2019-02-20T13:10:07.149Z,12.90
2019-02-20T13:12:35.061Z,12.80
2019-02-20T13:15:02.951Z,12.80
2019-02-20T13:17:30.831Z,12.60
2019-02-20T13:19:58.703Z,12.50
2019-02-20T13:22:26.554Z,12.30
2019-02-20T13:24:54.454Z,12.30
2019-02-20T13:27:23.134Z,12.30
2019-02-20T13:29:51.085Z,12.20
2019-02-20T13:32:18.952Z,12.10
2019-02-20T13:34:46.842Z,12.10
2019-02-20T13:37:14.750Z,12.10
2019-02-20T13:39:42.626Z,12.10
2019-02-20T13:42:10.508Z,12.10
2019-02-20T13:44:38.635Z,12.10
2019-02-20T13:47:06.513Z,12.20
2019-02-20T13:49:34.343Z,12.10
2019-02-20T13:52:02.219Z,11.90
2019-02-20T13:54:30.136Z,12.10
2019-02-20T13:57:01.766Z,12.20
2019-02-20T13:59:28.158Z,12.10
2019-02-20T14:01:56.214Z,12.20
2019-02-20T14:04:24.052Z,12.20
2019-02-20T14:06:52.157Z,12.30
2019-02-20T14:09:20.035Z,12.40
2019-02-20T14:11:47.844Z,12.40
2019-02-20T14:14:16.688Z,12.40
2019-02-20T14:16:44.761Z,12.40
2019-02-20T14:19:12.893Z,12.30
2019-02-20T14:21:40.860Z,12.20
2019-02-20T14:24:08.699Z,12.30
2019-02-20T14:26:36.637Z,12.40
2019-02-20T14:29:04.501Z,12.30
2019-02-20T14:31:32.403Z,12.30
2019-02-20T14:34:00.311Z,12.20
2019-02-20T14:36:28.641Z,12.20
2019-02-20T14:38:56.545Z,12.10
2019-02-20T14:41:24.427Z,12.00
2019-02-20T14:43:52.304Z,12.00
2019-02-20T14:46:20.155Z,12.00
2019-02-20T14:48:48.083Z,12.00
2019-02-20T14:51:15.999Z,12.00
2019-02-20T14:53:44.252Z,12.20
2019-02-20T14:56:12.667Z,12.00
2019-02-20T14:58:40.502Z,11.80
2019-02-20T15:01:08.383Z,11.90
2019-02-20T15:03:36.253Z,11.90
2019-02-20T15:06:04.105Z,12.00
2019-02-20T15:08:31.963Z,11.90
2019-02-20T15:11:00.241Z,11.80
2019-02-20T15:13:28.070Z,11.80
2019-02-20T15:15:55.986Z,11.70
2019-02-20T15:18:23.880Z,11.80
2019-02-20T15:20:51.822Z,11.80
2019-02-20T15:23:19.679Z,11.70
2019-02-20T15:25:47.561Z,11.60
2019-02-20T15:28:15.447Z,11.60
2019-02-20T15:30:43.727Z,11.70
2019-02-20T15:33:11.598Z,11.70
2019-02-20T15:35:39.509Z,11.80
2019-02-20T15:38:07.341Z,11.80
2019-02-20T15:40:35.438Z,11.60
2019-02-20T15:43:03.371Z,11.50
2019-02-20T15:45:31.193Z,11.50
2019-02-20T15:47:59.031Z,11.50
2019-02-20T15:50:26.938Z,11.50
2019-02-20T15:52:54.832Z,11.50
2019-02-20T15:55:22.729Z,11.40
2019-02-20T15:57:50.615Z,11.30
2019-02-20T16:00:19.865Z,11.30
2019-02-20T16:02:47.732Z,11.30
2019-02-20T16:05:15.953Z,11.10
2019-02-20T16:07:43.862Z,11.10
2019-02-20T16:10:11.675Z,11.10
2019-02-20T16:12:39.501Z,11.10
2019-02-20T16:15:08.060Z,10.90
2019-02-20T16:17:35.954Z,10.80
2019-02-20T16:20:05.598Z,10.70
2019-02-20T16:22:33.659Z,10.70
2019-02-20T16:25:01.545Z,10.70
2019-02-20T16:27:29.487Z,10.50
2019-02-20T16:29:57.327Z,10.40
2019-02-20T16:32:25.189Z,10.30
2019-02-20T16:34:53.070Z,10.30
2019-02-20T16:37:21.755Z,10.20
2019-02-20T16:39:49.965Z,10.20
2019-02-20T16:42:17.862Z,10.20
2019-02-20T16:44:45.815Z,10.10
2019-02-20T16:47:13.677Z,10.10
2019-02-20T16:49:41.857Z,10.10
2019-02-20T16:52:09.815Z,10.00
2019-02-20T16:54:37.729Z,9.90
2019-02-20T16:57:06.013Z,9.90
2019-02-20T16:59:33.862Z,9.80
2019-02-20T17:02:01.850Z,9.80
2019-02-20T17:04:29.764Z,9.80
2019-02-20T17:06:57.675Z,9.70
2019-02-20T17:09:25.512Z,9.60
2019-02-20T17:11:53.448Z,9.50
2019-02-20T17:14:21.757Z,9.50
2019-02-20T17:16:49.542Z,9.40
2019-02-20T17:19:17.439Z,9.50
2019-02-20T17:21:46.036Z,9.40
2019-02-20T17:24:13.933Z,9.40
2019-02-20T17:26:42.092Z,9.50
2019-02-20T17:29:09.978Z,9.40
2019-02-20T17:31:38.394Z,9.40
2019-02-20T17:34:06.292Z,9.20
2019-02-20T17:36:34.205Z,9.20
2019-02-20T17:39:02.257Z,9.10
2019-02-20T17:41:30.180Z,9.00
2019-02-20T17:43:58.032Z,9.00
2019-02-20T17:46:26.061Z,8.90
2019-02-20T17:48:54.319Z,8.90
2019-02-20T17:51:22.213Z,8.90
2019-02-20T17:53:50.078Z,8.70
2019-02-20T17:56:17.927Z,8.70
2019-02-20T17:58:45.856Z,8.50
2019-02-20T18:01:16.429Z,8.30
2019-02-20T18:03:44.382Z,8.10
2019-02-20T18:06:12.384Z,8.00
2019-02-20T18:08:40.297Z,7.90
2019-02-20T18:11:08.392Z,7.80
2019-02-20T18:13:36.284Z,7.80
2019-02-20T18:16:04.431Z,7.90
2019-02-20T18:18:32.280Z,7.80
2019-02-20T18:21:00.260Z,7.80
2019-02-20T18:23:28.096Z,7.70
2019-02-20T18:25:56.054Z,7.50
2019-02-20T18:28:24.758Z,7.40
2019-02-20T18:30:52.886Z,7.30
2019-02-20T18:33:20.768Z,7.30
2019-02-20T18:35:48.650Z,7.40
2019-02-20T18:38:16.523Z,7.50
2019-02-20T18:40:44.414Z,7.50
2019-02-20T18:43:12.526Z,7.40
2019-02-20T18:45:40.433Z,7.40
2019-02-20T18:48:08.373Z,7.30
2019-02-20T18:50:36.262Z,7.30
2019-02-20T18:53:04.241Z,7.30
2019-02-20T18:55:32.098Z,7.10
2019-02-20T18:58:00.013Z,7.10
2019-02-20T19:00:28.095Z,7.00
2019-02-20T19:02:56.037Z,7.10
2019-02-20T19:05:24.003Z,6.90
2019-02-20T19:07:51.859Z,6.80
2019-02-20T19:10:26.427Z,6.90
2019-02-20T19:13:49.281Z,7.00
2019-02-20T19:17:33.808Z,6.90
2019-02-20T19:20:45.481Z,6.90
2019-02-20T19:24:20.591Z,6.90
2019-02-20T19:27:42.159Z,6.90
2019-02-20T19:31:19.372Z,6.90
2019-02-20T19:34:40.808Z,6.90
2019-02-20T19:38:20.706Z,6.70
2019-02-20T19:41:40.460Z,6.50
2019-02-20T19:45:21.445Z,6.40
2019-02-20T19:48:55.631Z,6.20
2019-02-20T19:52:36.287Z,6.20
2019-02-20T19:56:08.357Z,6.30
2019-02-20T19:59:48.043Z,6.20
2019-02-20T20:03:22.393Z,6.10
2019-02-20T20:07:08.680Z,6.00
2019-02-20T20:10:47.290Z,6.00
2019-02-20T20:13:55.474Z,5.80
2019-02-20T20:17:20.600Z,5.80
2019-02-20T20:20:19.647Z,5.80
2019-02-20T20:23:40.001Z,5.80
2019-02-20T20:27:20.023Z,5.70
2019-02-20T20:30:36.621Z,5.70
2019-02-20T20:33:42.243Z,5.70
2019-02-20T20:37:30.054Z,5.70
2019-02-20T20:40:39.814Z,5.70
2019-02-20T20:43:56.356Z,5.60
2019-02-20T20:47:27.235Z,5.50
2019-02-20T20:51:05.645Z,5.50
2019-02-20T20:54:36.251Z,5.50
2019-02-20T20:57:50.403Z,5.20
2019-02-20T21:01:11.700Z,5.00
2019-02-20T21:03:56.908Z,5.20
2019-02-20T21:07:05.343Z,5.30
2019-02-20T21:10:51.466Z,5.30
2019-02-20T21:14:32.876Z,5.40
2019-02-20T21:17:45.101Z,5.30
2019-02-20T21:21:00.845Z,5.10
2019-02-20T21:24:23.604Z,5.00
2019-02-20T21:27:56.822Z,5.00
2019-02-20T21:31:21.794Z,5.30
2019-02-20T21:34:36.582Z,5.30
2019-02-20T21:37:57.299Z,5.30
2019-02-20T21:41:25.937Z,5.30
2019-02-20T21:45:12.241Z,5.10
2019-02-20T21:48:22.561Z,5.00
2019-02-20T21:52:02.758Z,5.00
2019-02-20T21:55:15.823Z,4.90
2019-02-20T21:58:50.259Z,4.80
2019-02-20T22:02:22.338Z,4.90
2019-02-20T22:05:40.344Z,4.80
2019-02-20T22:09:36.508Z,4.90
2019-02-20T22:13:10.008Z,4.90
2019-02-20T22:16:17.320Z,4.80
2019-02-20T22:19:32.281Z,4.80
2019-02-20T22:22:55.722Z,4.80
2019-02-20T22:26:17.868Z,4.80
2019-02-20T22:29:35.789Z,4.90
2019-02-20T22:33:07.376Z,4.90
2019-02-20T22:36:44.758Z,5.10
2019-02-20T22:39:55.588Z,5.10
2019-02-20T22:43:05.409Z,5.10
2019-02-20T22:46:13.084Z,5.10
2019-02-20T22:49:39.903Z,5.00
2019-02-20T22:52:30.439Z,4.80
2019-02-20T22:55:54.108Z,4.80
2019-02-20T22:58:56.331Z,4.80
2019-02-20T23:02:15.102Z,4.70
2019-02-20T23:05:29.110Z,4.80
2019-02-20T23:08:37.508Z,4.70
2019-02-20T23:11:38.041Z,4.70
2019-02-20T23:14:24.449Z,4.70
2019-02-20T23:16:52.340Z,4.80
2019-02-20T23:19:20.264Z,4.80
2019-02-20T23:21:48.122Z,4.70
2019-02-20T23:24:16.081Z,4.80
2019-02-20T23:26:44.018Z,4.90
2019-02-20T23:29:11.857Z,4.70
2019-02-20T23:31:39.752Z,4.80
2019-02-20T23:34:07.559Z,4.90
2019-02-20T23:36:35.482Z,5.00
2019-02-20T23:39:05.231Z,5.00
2019-02-20T23:41:33.074Z,5.00
2019-02-20T23:44:00.912Z,4.90
2019-02-20T23:46:28.734Z,4.80
2019-02-20T23:48:56.583Z,4.60
2019-02-20T23:51:24.497Z,4.60
2019-02-20T23:53:52.399Z,4.60
2019-02-20T23:56:20.247Z,4.70
2019-02-20T23:58:48.058Z,4.60
